ケアンズ の空港の天気 - METARとTAF

ケアンズ国際空港 ( YBCS / CNS ) - オーストラリア クイーンズランド州ケアンズ
飛行場実況気象(Metar)
観測時間08/05 17:30 AEST (08/05 07:30 UTC)
風向・風速南 3m/s
視程10km以上
天気現象
全天を覆う雲 雲底高度 1740m
気温25℃
湿度61%
気圧1012hPa
METARYBCS 050730Z AUTO 17005KT 9999 // OVC057 25/17 Q1012
過去の天気等 Google飛行場航空写真 Wunderground天気予報

過去48時間のMETAR

飛行場予報(TAF)
発表時間: 8/05 15:16 AEST (8/05 05:16 UTC)
予報対象時間: 5日16時 AEST ~ 6日16時 AEST
風向・風速東 4m/s
視程10km以上
少しの雲 雲底高度 1220m
5日20時 AEST から
風向・風速南南東 3m/s
視程10km以上
全天の4割程度の雲 雲底高度 610m
全天の4割程度の雲 雲底高度 1220m
6日11時 AEST から
風向・風速東南東 5m/s
視程10km以上
全天の4割程度の雲 雲底高度 910m
6日14時 AEST から
風向・風速北東 4m/s
視程10km以上
全天の8割程度の雲 雲底高度 1070m
TAF YBCS 050516Z 0506/0606 08008KT 9999 FEW040
FM051000 16006KT 9999 SCT020 SCT040
FM060100 11010KT 9999 SCT030
FM060400 04008KT 9999 BKN035